Ohiopyle, PA

3:08 AM EST on February 06, 2016 (GMT -0500)
Donna's Weather | | Change Station
CLOSE
Current Station
Personal Weather Station
Location: Markleysburg, PA
Elevation: 2306 ft
Nearby Weather Stations

Elev 2306 ft 39.77 °N, 79.50 °W | Updated 11 seconds ago

Clear
Clear
21.4 °F
Feels Like 21 °F
N
0.0
Wind Variable Wind from West
Gusts 0.0 mph

Today
High -- | Low -- °F
--% Chance of Precip.
Yesterday
High -- | Low -- °F
Precip. -- in
Pressure 30.25 in
Visibility 10.0 miles
Clouds Clear
Windchill 21 °F
Dew Point 10 °F
Humidity 62%
Rainfall 0.00 in
Snow Depth Not available.
7:21 AM 5:42 PM
Waning Crescent, 7% visible
METAR K2G4 060800Z AUTO 21006KT 10SM CLR M06/M10 A3025 RMK AO1
Pressure 30.25 in
Visibility 10.0 miles
Clouds Clear
Windchill 21 °F
Dew Point 10 °F
Humidity 62%
Rainfall 0.00 in
Snow Depth Not available.
7:21 AM 5:42 PM
Waning Crescent, 7% visible
METAR K2G4 060800Z AUTO 21006KT 10SM CLR M06/M10 A3025 RMK AO1

10-Day Weather Forecast

Almanac

Astronomy

Feb. 06, 2016 Rise Set
Actual Time
Civil Twilight
Nautical Twilight
Astronomical Twilight
Moon
Length of Visible Light
Length of Day
Tomorrow will be .
, % of the Moon is Illuminated

Today's Extremes

State Highs State Lows

Community

WunderPhotos

Upload Photos

1,890,933 photos uploaded!

WunderBlog® & News

Nearby

Air Quality

  Air Quality AQ Index Pollutant
Not available.

Snow Depth

Station Depth Elevation

Earthquake Activity

City Distance Mag. Time & Date
Minimum magnitude displayed is 2.5.

Coastal Water Temperatures

Place Temperature

Stations

Nearby Weather Stations

Station Location Temp. Windchill Dew Point Humidity Wind Precip. Elev Updated Type
                   

Watches & Warnings

There are currently no watches in effect.